Arch, NM

10:01 PM MST on January 27, 2015 (GMT -0700)
APRSWXNET Portales NM US | Change Station
CLOSE
Current Station
Personal Weather Station
Location: Portales, NM
Elevation: 4050 ft
Nearby Weather Stations
Active Advisory: Special Statement

Elev 4050 ft 34.17 °N, 103.35 °W | Updated 32 minutes ago

Clear
Clear
49 °F
Feels Like 47 °F
N
5
Wind Variable Wind from WNW
Gusts 6.0 mph

Today
High -- | Low -- °F
--% Chance of Precip.
Yesterday
High -- | Low -- °F
Precip. -- in
6:54 AM 5:18 PM
First Quarter, 61% visible
Pressure 30.07 in
Visibility 10.0 miles
Clouds Clear
Windchill 47 °F
Dew Point 34 °F
Humidity 55%
Rainfall 0.00 in
Snow Depth Not available.
UV 0 out of 12
Pollen 6.70 out of 12
Air Quality Not available.
Flu Activity Not available.
METAR KCVS 280458Z AUTO 29009KT 10SM CLR 09/01 A3015 RMK AO2 SLP181 T00930006 VISNO RWY22 $

More Conditions Fewer Conditions

Pressure 30.07 in
Visibility 10.0 miles
Clouds Clear
Windchill 47 °F
Dew Point 34 °F
Humidity 55%
Rainfall 0.00 in
Snow Depth Not available.
UV 0 out of 12
Pollen 6.70 out of 12
Air Quality Not available.
Flu Activity Not available.
METAR KCVS 280458Z AUTO 29009KT 10SM CLR 09/01 A3015 RMK AO2 SLP181 T00930006 VISNO RWY22 $

More Conditions Fewer Conditions

10-Day Weather Forecast

Almanac

Astronomy

Jan. 27, 2015 Rise Set
Actual Time
Civil Twilight
Nautical Twilight
Astronomical Twilight
Moon
Length of Visible Light
Length of Day
Tomorrow will be .
, % of the Moon is Illuminated

Today's Extremes

State Highs State Lows

Community

WunderPhotos

Upload Photos

1,791,102 photos uploaded!

WunderBlogs® & News

Nearby

Air Quality

  Air Quality AQ Index Pollutant
Not available.

Snow Depth

Station Depth Elevation

Earthquake Activity

City Distance Mag. Time & Date
Minimum magnitude displayed is 2.5.

Coastal Water Temperatures

Place Temperature

Nearby Weather Stations